createdAt,value
2023-07-12T00:01:28.741Z,16.56
2023-07-12T00:04:00.105Z,16.54
2023-07-12T00:06:36.238Z,16.55
2023-07-12T00:09:13.150Z,16.54
2023-07-12T00:11:42.756Z,16.50
2023-07-12T00:14:11.117Z,16.46
2023-07-12T00:16:41.608Z,16.43
2023-07-12T00:19:16.945Z,16.39
2023-07-12T00:21:45.282Z,16.35
2023-07-12T00:24:13.388Z,16.31
2023-07-12T00:26:41.651Z,16.26
2023-07-12T00:29:10.616Z,16.22
2023-07-12T00:31:39.829Z,16.18
2023-07-12T00:34:08.188Z,16.12
2023-07-12T00:36:36.795Z,16.09
2023-07-12T00:39:06.518Z,16.05
2023-07-12T00:42:03.922Z,16.01
2023-07-12T00:44:37.651Z,15.97
2023-07-12T00:47:05.894Z,15.94
2023-07-12T00:49:33.886Z,15.91
2023-07-12T00:52:10.223Z,15.88
2023-07-12T00:54:59.376Z,15.81
2023-07-12T00:57:29.289Z,15.76
2023-07-12T01:00:13.962Z,15.72
2023-07-12T01:02:46.212Z,15.70
2023-07-12T01:05:16.239Z,15.69
2023-07-12T01:07:45.702Z,15.68
2023-07-12T01:10:13.905Z,15.68
2023-07-12T01:12:42.015Z,15.70
2023-07-12T01:15:11.822Z,15.72
2023-07-12T01:17:40.207Z,15.71
2023-07-12T01:20:11.550Z,15.69
2023-07-12T01:22:39.544Z,15.70
2023-07-12T01:25:07.866Z,15.69
2023-07-12T01:27:35.914Z,15.67
2023-07-12T01:30:04.456Z,15.65
2023-07-12T01:32:35.004Z,15.61
2023-07-12T01:35:03.453Z,15.56
2023-07-12T01:37:31.411Z,15.50
2023-07-12T01:39:59.354Z,15.48
2023-07-12T01:42:27.498Z,15.45
2023-07-12T01:44:55.604Z,15.41
2023-07-12T01:47:23.950Z,15.36
2023-07-12T01:49:51.904Z,15.30
2023-07-12T01:52:20.037Z,15.26
2023-07-12T01:54:49.300Z,15.21
2023-07-12T01:57:20.889Z,15.15
2023-07-12T01:59:48.993Z,15.07
2023-07-12T02:02:17.102Z,15.01
2023-07-12T02:04:45.171Z,14.94
2023-07-12T02:07:14.530Z,14.89
2023-07-12T02:10:07.416Z,14.83
2023-07-12T02:12:35.532Z,14.79
2023-07-12T02:15:03.838Z,14.75
2023-07-12T02:17:31.877Z,14.72
2023-07-12T02:19:59.859Z,14.69
2023-07-12T02:22:31.816Z,14.67
2023-07-12T02:25:00.050Z,14.66
2023-07-12T02:27:28.104Z,14.62
2023-07-12T02:29:56.327Z,14.58
2023-07-12T02:32:24.640Z,14.55
2023-07-12T02:34:52.705Z,14.52
2023-07-12T02:37:20.959Z,14.51
2023-07-12T02:39:49.505Z,14.50
2023-07-12T02:42:17.558Z,14.49
2023-07-12T02:44:45.567Z,14.51
2023-07-12T02:47:13.709Z,14.54
2023-07-12T02:49:41.942Z,14.56
2023-07-12T02:52:10.430Z,14.60
2023-07-12T02:54:38.451Z,14.64
2023-07-12T02:57:10.297Z,14.69
2023-07-12T02:59:38.721Z,14.74
2023-07-12T03:02:08.999Z,14.77
2023-07-12T03:04:37.629Z,14.78
2023-07-12T03:07:06.291Z,14.77
2023-07-12T03:09:34.350Z,14.79
2023-07-12T03:12:02.685Z,14.79
2023-07-12T03:14:30.897Z,14.80
2023-07-12T03:16:59.606Z,14.80
2023-07-12T03:19:27.674Z,14.82
2023-07-12T03:21:55.661Z,14.86
2023-07-12T03:24:23.668Z,14.92
2023-07-12T03:26:51.733Z,14.98
2023-07-12T03:29:19.772Z,15.06
2023-07-12T03:31:47.871Z,15.17
2023-07-12T03:34:15.962Z,15.26
2023-07-12T03:36:44.081Z,15.38
2023-07-12T03:39:12.199Z,15.49
2023-07-12T03:41:40.324Z,15.63
2023-07-12T03:44:08.557Z,15.76
2023-07-12T03:46:36.707Z,15.90
2023-07-12T03:49:04.914Z,16.05
2023-07-12T03:51:32.977Z,16.22
2023-07-12T03:54:01.255Z,16.40
2023-07-12T03:56:29.330Z,16.57
2023-07-12T03:58:57.401Z,16.74
2023-07-12T04:01:25.557Z,16.86
2023-07-12T04:03:53.597Z,16.95
2023-07-12T04:06:21.610Z,17.05
2023-07-12T04:08:49.615Z,17.22
2023-07-12T04:11:28.518Z,17.44
2023-07-12T04:13:56.658Z,17.65
2023-07-12T04:16:28.322Z,17.85
2023-07-12T04:18:56.534Z,18.05
2023-07-12T04:21:25.318Z,18.28
2023-07-12T04:23:54.207Z,18.52
2023-07-12T04:26:22.425Z,18.68
2023-07-12T04:28:52.848Z,18.87
2023-07-12T04:31:23.449Z,19.11
2023-07-12T04:33:51.645Z,19.33
2023-07-12T04:36:20.019Z,20.07
2023-07-12T04:38:48.327Z,20.95
2023-07-12T04:41:16.703Z,21.70
2023-07-12T04:43:44.822Z,22.08
2023-07-12T04:46:13.025Z,22.36
2023-07-12T04:48:41.048Z,22.67
2023-07-12T04:51:09.484Z,22.91
2023-07-12T04:53:37.713Z,23.29
2023-07-12T04:56:05.718Z,23.51
2023-07-12T04:58:34.621Z,23.56
2023-07-12T05:01:03.733Z,23.81
2023-07-12T05:03:32.781Z,23.91
2023-07-12T05:06:09.878Z,24.08
2023-07-12T05:08:49.269Z,24.49
2023-07-12T05:11:17.472Z,25.12
2023-07-12T05:13:45.587Z,25.31
2023-07-12T05:16:13.679Z,25.36
2023-07-12T05:18:42.050Z,25.00
2023-07-12T05:21:10.641Z,24.64
2023-07-12T05:23:41.319Z,24.51
2023-07-12T05:26:10.089Z,24.66
2023-07-12T05:28:40.181Z,24.64
2023-07-12T05:31:10.469Z,24.32
2023-07-12T05:33:42.213Z,23.94
2023-07-12T05:36:11.388Z,23.77
2023-07-12T05:38:39.522Z,23.67
2023-07-12T05:41:07.583Z,23.46
2023-07-12T05:43:35.697Z,23.47
2023-07-12T05:46:04.817Z,23.67
2023-07-12T05:48:33.407Z,23.67
2023-07-12T05:51:02.626Z,23.56
2023-07-12T05:53:31.265Z,23.45
2023-07-12T05:56:02.314Z,23.38
2023-07-12T05:58:30.518Z,23.54
2023-07-12T06:01:00.539Z,23.56
2023-07-12T06:03:30.767Z,23.52
2023-07-12T06:05:59.299Z,23.64
2023-07-12T06:08:28.782Z,23.46
2023-07-12T06:10:56.889Z,23.21
2023-07-12T06:13:24.958Z,23.09
2023-07-12T06:15:53.154Z,23.13
2023-07-12T06:18:21.644Z,23.25
2023-07-12T06:20:57.061Z,23.11
2023-07-12T06:23:26.322Z,23.20
2023-07-12T06:25:58.844Z,23.43
2023-07-12T06:28:27.908Z,23.60
2023-07-12T06:30:56.461Z,23.94
2023-07-12T06:33:24.707Z,24.08
2023-07-12T06:35:52.923Z,24.19
2023-07-12T06:38:22.436Z,24.40
2023-07-12T06:40:50.514Z,24.44
2023-07-12T06:43:18.559Z,24.51
2023-07-12T06:45:46.788Z,24.88
2023-07-12T06:48:14.815Z,25.12
2023-07-12T06:50:42.881Z,25.26
2023-07-12T06:53:10.983Z,25.49
2023-07-12T06:55:44.592Z,25.81
2023-07-12T06:58:13.450Z,26.23
2023-07-12T07:00:43.321Z,26.57
2023-07-12T07:03:13.348Z,26.89
2023-07-12T07:05:43.474Z,26.80
2023-07-12T07:08:17.294Z,26.59
2023-07-12T07:10:50.333Z,26.39
2023-07-12T07:13:19.124Z,26.12
2023-07-12T07:15:47.459Z,26.05
2023-07-12T07:18:16.078Z,26.11
2023-07-12T07:20:45.926Z,26.40
2023-07-12T07:23:15.032Z,26.51
2023-07-12T07:25:43.995Z,26.56
2023-07-12T07:28:12.747Z,26.65
2023-07-12T07:30:40.999Z,26.88
2023-07-12T07:33:10.010Z,26.79
2023-07-12T07:35:38.233Z,26.70
2023-07-12T07:38:06.261Z,26.63
2023-07-12T07:40:34.443Z,26.72
2023-07-12T07:43:02.575Z,26.93
2023-07-12T07:45:30.645Z,27.05
2023-07-12T07:47:58.647Z,27.06
2023-07-12T07:50:26.961Z,27.09
2023-07-12T07:52:54.991Z,27.01
2023-07-12T07:55:22.959Z,27.00
2023-07-12T07:57:50.934Z,26.93
2023-07-12T08:00:19.347Z,26.92
2023-07-12T08:02:48.478Z,27.03
2023-07-12T08:05:16.684Z,27.16
2023-07-12T08:07:49.271Z,27.18
2023-07-12T08:10:19.390Z,26.97
2023-07-12T08:12:49.167Z,26.85
2023-07-12T08:15:19.917Z,26.62
2023-07-12T08:17:48.974Z,26.51
2023-07-12T08:20:17.230Z,26.50
2023-07-12T08:22:45.289Z,26.49
2023-07-12T08:25:14.798Z,26.38
2023-07-12T08:27:43.563Z,26.40
2023-07-12T08:30:12.624Z,26.42
2023-07-12T08:32:41.207Z,26.48
2023-07-12T08:35:11.529Z,26.49
2023-07-12T08:37:39.715Z,26.49
2023-07-12T08:40:08.459Z,26.30
2023-07-12T08:42:42.303Z,26.18
2023-07-12T08:45:20.850Z,26.03
2023-07-12T08:47:52.879Z,25.91
2023-07-12T08:50:21.965Z,25.88
2023-07-12T08:52:50.328Z,25.82
2023-07-12T08:55:21.130Z,25.79
2023-07-12T08:57:55.789Z,25.78
2023-07-12T09:00:29.899Z,25.86
2023-07-12T09:02:58.057Z,25.98
2023-07-12T09:05:26.317Z,26.05
2023-07-12T09:08:12.768Z,26.23
2023-07-12T09:10:53.856Z,26.45
2023-07-12T09:13:22.594Z,26.64
2023-07-12T09:15:52.942Z,26.83
2023-07-12T09:18:33.505Z,26.90
2023-07-12T09:21:13.185Z,27.00
2023-07-12T09:23:44.171Z,27.10
2023-07-12T09:26:27.080Z,27.20
2023-07-12T09:29:00.091Z,27.40
2023-07-12T09:31:33.982Z,27.48
2023-07-12T09:34:06.483Z,27.55
2023-07-12T09:36:41.230Z,27.33
2023-07-12T09:39:12.486Z,27.24
2023-07-12T09:41:51.789Z,27.21
2023-07-12T09:44:20.231Z,27.35
2023-07-12T09:46:55.372Z,27.28
2023-07-12T09:49:57.992Z,27.06
2023-07-12T09:52:34.694Z,26.60
2023-07-12T09:55:26.646Z,26.33
2023-07-12T09:58:04.134Z,25.93
2023-07-12T10:00:59.243Z,25.70
2023-07-12T10:03:39.472Z,25.66
2023-07-12T10:06:21.745Z,25.71
2023-07-12T10:08:58.872Z,25.72
2023-07-12T10:11:30.816Z,25.72
2023-07-12T10:14:09.104Z,25.68
2023-07-12T10:16:45.923Z,25.71
2023-07-12T10:19:27.732Z,25.85
2023-07-12T10:21:59.989Z,25.73
2023-07-12T10:24:37.312Z,25.49
2023-07-12T10:27:27.056Z,25.35
2023-07-12T10:30:09.769Z,24.94
2023-07-12T10:32:44.928Z,24.65
2023-07-12T10:35:33.332Z,24.46
2023-07-12T10:38:07.098Z,24.30
2023-07-12T10:40:44.262Z,24.13
2023-07-12T10:43:35.633Z,23.86
2023-07-12T10:46:19.514Z,23.55
2023-07-12T10:48:51.164Z,23.30
2023-07-12T10:51:22.380Z,23.11
2023-07-12T10:53:54.153Z,22.87
2023-07-12T10:56:26.653Z,22.66
2023-07-12T10:59:00.128Z,22.41
2023-07-12T11:01:44.602Z,22.23
2023-07-12T11:04:17.989Z,22.11
2023-07-12T11:06:59.846Z,21.94
2023-07-12T11:09:50.703Z,21.92
2023-07-12T11:12:40.310Z,21.85
2023-07-12T11:15:28.794Z,21.78
2023-07-12T11:18:05.550Z,21.63
2023-07-12T11:20:55.263Z,21.39
2023-07-12T11:23:28.447Z,21.19
2023-07-12T11:26:06.707Z,21.07
2023-07-12T11:28:43.421Z,20.84
2023-07-12T11:31:19.544Z,20.76
2023-07-12T11:34:08.810Z,20.73
2023-07-12T11:36:37.747Z,20.71
2023-07-12T11:39:21.889Z,20.74
2023-07-12T11:41:58.867Z,20.92
2023-07-12T11:44:27.284Z,21.03
2023-07-12T11:46:56.972Z,21.16
2023-07-12T11:49:31.696Z,21.23
2023-07-12T11:52:05.877Z,21.25
2023-07-12T11:54:38.450Z,21.29
2023-07-12T11:57:12.385Z,21.33
2023-07-12T11:59:43.704Z,21.44
2023-07-12T12:02:21.260Z,21.67
2023-07-12T12:04:51.380Z,21.84
2023-07-12T12:07:21.651Z,22.07
2023-07-12T12:09:50.692Z,22.31
2023-07-12T12:12:22.197Z,22.74
2023-07-12T12:14:52.313Z,23.14
2023-07-12T12:17:26.405Z,23.65
2023-07-12T12:20:16.076Z,24.10
2023-07-12T12:22:50.945Z,24.46
2023-07-12T12:25:28.096Z,24.75
2023-07-12T12:27:56.892Z,24.80
2023-07-12T12:30:34.840Z,24.72
2023-07-12T12:33:06.927Z,24.60
2023-07-12T12:35:48.717Z,24.48
2023-07-12T12:38:23.563Z,24.33
2023-07-12T12:40:57.652Z,24.21
2023-07-12T12:43:26.717Z,24.15
2023-07-12T12:46:06.630Z,24.07
2023-07-12T12:53:28.491Z,23.73
2023-07-12T12:53:56.610Z,23.54
2023-07-12T13:06:29.850Z,22.84
2023-07-12T13:21:35.168Z,22.29
2023-07-12T13:24:03.548Z,22.23
2023-07-12T13:26:35.881Z,22.19
2023-07-12T13:29:17.438Z,22.02
2023-07-12T13:31:49.437Z,21.82
2023-07-12T13:34:19.697Z,21.69
2023-07-12T13:36:49.728Z,21.65
2023-07-12T13:47:00.903Z,21.86
2023-07-12T13:49:29.016Z,21.98
2023-07-12T13:51:57.654Z,22.16
2023-07-12T13:54:25.600Z,22.39
2023-07-12T13:56:55.347Z,22.48
2023-07-12T13:59:23.887Z,22.56
2023-07-12T14:04:27.302Z,22.76
2023-07-12T14:06:59.702Z,23.13
2023-07-12T14:09:31.489Z,23.36
2023-07-12T14:11:59.754Z,23.70
2023-07-12T14:14:28.024Z,23.99
2023-07-12T14:16:56.208Z,24.56
2023-07-12T14:19:24.268Z,24.84
2023-07-12T14:21:52.526Z,24.95
2023-07-12T14:24:20.748Z,24.95
2023-07-12T14:26:48.857Z,24.95
2023-07-12T14:31:50.632Z,25.08
2023-07-12T14:34:19.730Z,25.02
2023-07-12T14:36:48.014Z,25.27
2023-07-12T14:39:16.238Z,25.88
2023-07-12T14:41:44.924Z,26.59
2023-07-12T14:44:15.595Z,26.82
2023-07-12T14:46:44.964Z,26.89
2023-07-12T14:49:13.108Z,27.06
2023-07-12T14:51:41.397Z,27.31
2023-07-12T14:54:14.090Z,27.52
2023-07-12T14:56:42.166Z,27.68
2023-07-12T14:59:13.474Z,27.63
2023-07-12T15:01:41.740Z,27.69
2023-07-12T15:04:15.362Z,27.55
2023-07-12T15:06:43.372Z,27.32
2023-07-12T15:10:03.988Z,27.35
2023-07-12T15:12:02.525Z,27.43
2023-07-12T15:14:31.020Z,27.64
2023-07-12T15:16:59.022Z,27.86
2023-07-12T15:19:27.371Z,27.83
2023-07-12T15:21:55.464Z,27.71
2023-07-12T15:24:23.742Z,27.66
2023-07-12T15:26:51.768Z,27.73
2023-07-12T15:29:19.771Z,27.89
2023-07-12T15:31:47.845Z,27.71
2023-07-12T15:34:15.856Z,27.27
2023-07-12T15:36:44.500Z,27.44
2023-07-12T15:39:12.570Z,27.68
2023-07-12T15:41:40.615Z,27.55
2023-07-12T15:44:10.661Z,27.32
2023-07-12T15:46:38.864Z,27.61
2023-07-12T15:49:07.164Z,28.01
2023-07-12T15:51:43.502Z,28.43
2023-07-12T15:54:17.148Z,28.63
2023-07-12T15:56:46.811Z,28.57
2023-07-12T15:59:19.197Z,28.33
2023-07-12T16:01:48.285Z,28.20
2023-07-12T16:04:18.773Z,28.18
2023-07-12T16:06:48.454Z,28.45
2023-07-12T16:09:18.267Z,28.64
2023-07-12T16:11:48.546Z,28.93
2023-07-12T16:14:25.357Z,29.30
2023-07-12T16:16:53.731Z,29.53
2023-07-12T16:19:22.472Z,29.52
2023-07-12T16:21:50.644Z,29.32
2023-07-12T16:24:18.908Z,29.28
2023-07-12T16:26:47.256Z,29.09
2023-07-12T16:29:15.594Z,28.90
2023-07-12T16:31:54.227Z,28.48
2023-07-12T16:34:27.133Z,28.23
2023-07-12T16:36:58.806Z,27.80
2023-07-12T16:39:27.309Z,27.54
2023-07-12T16:41:55.700Z,27.26
2023-07-12T16:44:25.944Z,26.97
2023-07-12T16:46:54.548Z,26.73
2023-07-12T16:49:23.100Z,26.45
2023-07-12T16:51:55.967Z,26.24
2023-07-12T16:54:24.130Z,26.03
2023-07-12T16:56:52.866Z,25.80
2023-07-12T16:59:21.323Z,25.56
2023-07-12T17:01:49.705Z,25.07
2023-07-12T17:04:20.182Z,24.13
2023-07-12T17:06:48.816Z,23.68
2023-07-12T17:09:29.532Z,23.04
2023-07-12T17:11:58.430Z,22.75
2023-07-12T17:14:26.784Z,22.51
2023-07-12T17:16:55.070Z,22.54
2023-07-12T17:19:23.207Z,22.72
2023-07-12T17:21:52.337Z,22.90
2023-07-12T17:24:32.437Z,22.95
2023-07-12T17:27:00.448Z,22.84
2023-07-12T17:29:28.534Z,22.66
2023-07-12T17:31:56.667Z,22.38
2023-07-12T17:34:28.097Z,22.09
2023-07-12T17:36:57.556Z,21.89
2023-07-12T17:39:27.317Z,21.75
2023-07-12T17:41:56.250Z,21.57
2023-07-12T17:44:26.029Z,21.44
2023-07-12T17:46:54.915Z,21.34
2023-07-12T17:49:23.025Z,21.26
2023-07-12T17:51:51.384Z,21.16
2023-07-12T17:54:19.436Z,21.05
2023-07-12T17:56:48.210Z,20.98
2023-07-12T17:59:18.041Z,20.90
2023-07-12T18:01:46.697Z,20.84
2023-07-12T18:04:16.047Z,20.77
2023-07-12T18:06:44.537Z,20.69
2023-07-12T18:09:12.845Z,20.64
2023-07-12T18:11:47.823Z,20.60
2023-07-12T18:14:21.395Z,20.55
2023-07-12T18:16:50.855Z,20.55
2023-07-12T18:19:19.075Z,20.54
2023-07-12T18:21:49.129Z,20.53
2023-07-12T18:24:21.316Z,20.52
2023-07-12T18:26:50.808Z,20.48
2023-07-12T18:29:18.969Z,20.45
2023-07-12T18:31:47.366Z,20.39
2023-07-12T18:34:16.698Z,20.30
2023-07-12T18:36:45.185Z,20.19
2023-07-12T18:39:18.065Z,20.02
2023-07-12T18:41:46.623Z,19.91
2023-07-12T18:44:15.418Z,19.81
2023-07-12T18:46:44.219Z,19.71
2023-07-12T18:49:13.013Z,19.63
2023-07-12T18:51:41.680Z,19.51
2023-07-12T18:54:19.981Z,19.40
2023-07-12T18:56:49.453Z,19.26
2023-07-12T18:59:18.130Z,19.16
2023-07-12T19:01:46.908Z,19.07
2023-07-12T19:04:19.096Z,19.00
2023-07-12T19:06:48.527Z,18.93
2023-07-12T19:09:16.654Z,18.87
2023-07-12T19:11:54.061Z,18.81
2023-07-12T19:14:24.351Z,18.73
2023-07-12T19:16:52.606Z,18.65
2023-07-12T19:19:21.126Z,18.56
2023-07-12T19:21:51.195Z,18.49
2023-07-12T19:24:23.596Z,18.42
2023-07-12T19:26:53.864Z,18.37
2023-07-12T19:29:25.096Z,18.31
2023-07-12T19:31:54.331Z,18.27
2023-07-12T19:34:24.904Z,18.23
2023-07-12T19:36:56.589Z,18.19
2023-07-12T19:39:26.146Z,18.14
2023-07-12T19:41:54.765Z,18.09
2023-07-12T19:44:23.042Z,18.05
2023-07-12T19:46:53.269Z,17.97
2023-07-12T19:49:22.553Z,17.90
2023-07-12T19:51:50.802Z,17.84
2023-07-12T19:54:20.726Z,17.79
2023-07-12T19:56:49.155Z,17.76
2023-07-12T19:59:17.482Z,17.74
2023-07-12T20:01:45.667Z,17.68
2023-07-12T20:04:14.380Z,17.64
2023-07-12T20:06:42.568Z,17.60
2023-07-12T20:09:11.159Z,17.55
2023-07-12T20:11:39.289Z,17.52
2023-07-12T20:14:07.376Z,17.49
2023-07-12T20:16:35.548Z,17.44
2023-07-12T20:19:04.184Z,17.42
2023-07-12T20:21:55.238Z,17.40
2023-07-12T20:24:30.735Z,17.36
2023-07-12T20:27:00.045Z,17.33
2023-07-12T20:29:29.636Z,17.32
2023-07-12T20:32:02.081Z,17.29
2023-07-12T20:34:34.566Z,17.28
2023-07-12T20:37:03.709Z,17.25
2023-07-12T20:39:31.861Z,17.24
2023-07-12T20:42:01.524Z,17.26
2023-07-12T20:44:29.643Z,17.25
2023-07-12T20:46:57.941Z,17.19
2023-07-12T20:49:26.437Z,17.26
2023-07-12T20:51:57.291Z,17.38
2023-07-12T20:54:27.272Z,17.47
2023-07-12T20:56:55.392Z,17.49
2023-07-12T20:59:23.438Z,17.48
2023-07-12T21:01:51.518Z,17.41
2023-07-12T21:04:19.833Z,17.39
2023-07-12T21:06:47.945Z,17.35
2023-07-12T21:09:16.565Z,17.29
2023-07-12T21:11:44.640Z,17.22
2023-07-12T21:14:13.067Z,17.29
2023-07-12T21:16:41.219Z,17.36
2023-07-12T21:19:09.317Z,17.42
2023-07-12T21:21:37.518Z,17.45
2023-07-12T21:24:05.855Z,17.48
2023-07-12T21:26:34.017Z,17.51
2023-07-12T21:29:02.166Z,17.50
2023-07-12T21:31:32.358Z,17.52
2023-07-12T21:34:00.409Z,17.56
2023-07-12T21:36:28.666Z,17.56
2023-07-12T21:38:57.036Z,17.53
2023-07-12T21:41:25.259Z,17.49
2023-07-12T21:43:53.512Z,17.44
2023-07-12T21:46:21.815Z,17.42
2023-07-12T21:48:50.083Z,17.39
2023-07-12T21:51:24.699Z,17.35
2023-07-12T21:53:54.313Z,17.29
2023-07-12T21:56:23.691Z,17.30
2023-07-12T21:58:52.211Z,17.27
2023-07-12T22:01:20.669Z,17.21
2023-07-12T22:03:49.168Z,17.14
2023-07-12T22:06:20.104Z,17.08
2023-07-12T22:08:48.386Z,17.03
2023-07-12T22:11:24.395Z,17.00
2023-07-12T22:13:54.057Z,16.98
2023-07-12T22:16:29.296Z,16.94
2023-07-12T22:18:58.342Z,16.89
2023-07-12T22:21:26.382Z,16.85
2023-07-12T22:23:54.900Z,16.80
2023-07-12T22:26:29.189Z,16.75
2023-07-12T22:28:57.937Z,16.69
2023-07-12T22:31:26.233Z,16.65
2023-07-12T22:33:54.528Z,16.62
2023-07-12T22:36:22.687Z,16.61
2023-07-12T22:38:50.981Z,16.60
2023-07-12T22:41:22.096Z,16.58
2023-07-12T22:43:51.365Z,16.55
2023-07-12T22:46:19.505Z,16.52
2023-07-12T22:48:49.016Z,16.49
2023-07-12T22:51:17.925Z,16.46
2023-07-12T22:53:46.251Z,16.45
2023-07-12T22:56:20.278Z,16.40
2023-07-12T22:58:49.014Z,16.34
2023-07-12T23:01:17.387Z,16.31
2023-07-12T23:03:45.647Z,16.29
2023-07-12T23:06:13.951Z,16.29
2023-07-12T23:08:42.543Z,16.28
2023-07-12T23:11:16.897Z,16.27
2023-07-12T23:13:49.237Z,16.28
2023-07-12T23:16:22.484Z,16.27
2023-07-12T23:18:54.935Z,16.24
2023-07-12T23:21:24.109Z,16.21
2023-07-12T23:23:52.331Z,16.14
2023-07-12T23:26:20.865Z,16.08
2023-07-12T23:28:49.688Z,16.04
2023-07-12T23:31:17.911Z,16.00
2023-07-12T23:33:46.273Z,16.00
2023-07-12T23:36:16.400Z,16.01
2023-07-12T23:38:45.656Z,15.99
2023-07-12T23:41:14.191Z,15.95
2023-07-12T23:43:42.306Z,15.90
2023-07-12T23:46:10.832Z,15.85
2023-07-12T23:48:39.203Z,15.80
2023-07-12T23:51:07.239Z,15.79
2023-07-12T23:53:35.310Z,15.75
2023-07-12T23:56:04.004Z,15.68
2023-07-12T23:58:32.389Z,15.64
